Hua Xing Hai — VRQS9 — position and weather

sailwx.info

Track history (hours):
 
Tides and Currents Weather Stations Pressure Air Temp Water Temp Dewpoint Dewpoint Depression Visibility Wind Speed Wind Dir Waves Ship Positions

Hua Xing Hai

Last reported at 2017-Sep-24 07:05 UTC. Time now 2017-Sep-26 18:30 UTC.
Position N 01°17' E 103°22'.

Length 229 m; draft 7.5 m.

Type: Cargo ship. MMSI: 477021900.

Date/timePositionNaut miles runAvg speedWind from/ knotsBaromVisibWave heightAir tempDewpointWater temp
2017-Sep-24 07:05N 01°17' E 103°22'113.6
2017-Sep-24 06:59N 01°17' E 103°23'712.5
2017-Sep-24 06:26N 01°14' E 103°30'3 8.1
2017-Sep-24 06:00N 01°15' E 103°33'5 9.7
2017-Sep-24 05:31N 01°20' E 103°33'0 0.2
2017-Sep-24 04:50N 01°20' E 103°33'0 0.0
2017-Sep-24 04:23N 01°20' E 103°33'0 0.0
2017-Sep-24 03:53N 01°20' E 103°33'0 0.0
2017-Sep-24 03:17N 01°20' E 103°33'0 0.0
2017-Sep-24 02:56N 01°20' E 103°33'0 0.0
2017-Sep-24 02:26N 01°20' E 103°33'0 0.0
2017-Sep-24 00:32N 01°20' E 103°33'0 0.0
2017-Sep-24 00:29N 01°20' E 103°33'0 0.0
2017-Sep-23 23:56N 01°20' E 103°33'0 0.0
2017-Sep-23 23:23N 01°20' E 103°33'0 0.0
2017-Sep-23 22:56N 01°20' E 103°33'0 0.0
2017-Sep-23 22:29N 01°20' E 103°33'0 0.0
2017-Sep-23 21:56N 01°20' E 103°33'0 0.0
2017-Sep-23 21:29N 01°20' E 103°33'0 0.0
2017-Sep-23 20:56N 01°20' E 103°33'0 0.0
2017-Sep-23 20:29N 01°20' E 103°33'0 0.0
2017-Sep-23 19:56N 01°20' E 103°33'0 0.0
2017-Sep-22 01:53N 01°20' E 103°33'0 0.0
2017-Sep-22 01:23N 01°20' E 103°33'0 0.0
2017-Sep-22 00:47N 01°20' E 103°33'0 0.0
2017-Sep-22 00:23N 01°20' E 103°33'0 0.0
2017-Sep-21 23:59N 01°20' E 103°33'0 0.0
2017-Sep-21 23:29N 01°20' E 103°33'0 0.0
2017-Sep-21 22:59N 01°20' E 103°33'0 0.0
2017-Sep-21 22:29N 01°20' E 103°33'0 0.0
2017-Sep-21 21:56N 01°20' E 103°33'0 0.0
2017-Sep-21 21:14N 01°20' E 103°33'0 0.0
2017-Sep-21 20:50N 01°20' E 103°33'0 0.0
2017-Sep-21 20:26N 01°20' E 103°33'0 0.0
2017-Sep-21 19:47N 01°20' E 103°33'0 0.0
2017-Sep-21 19:26N 01°20' E 103°33'0 0.0
2017-Sep-21 18:59N 01°20' E 103°33'0 0.0
2017-Sep-21 18:29N 01°20' E 103°33'0 0.0
2017-Sep-21 17:59N 01°20' E 103°33'0 0.0
2017-Sep-21 17:17N 01°20' E 103°33'0 0.0
2017-Sep-21 16:59N 01°20' E 103°33'0 0.0
2017-Sep-21 16:20N 01°20' E 103°33'0 0.0
2017-Sep-21 15:56N 01°20' E 103°33'0 0.0
2017-Sep-21 15:14N 01°20' E 103°33'0 0.0
2017-Sep-21 13:29N 01°20' E 103°33'0 0.0
2017-Sep-21 12:59N 01°20' E 103°33'0 0.0
2017-Sep-21 12:29N 01°20' E 103°33'0 0.0
2017-Sep-21 11:59N 01°20' E 103°33'0 0.0
2017-Sep-21 11:29N 01°20' E 103°33'0 0.0
2017-Sep-21 10:50N 01°20' E 103°33'0 0.0
2017-Sep-21 10:29N 01°20' E 103°33'0 0.0
2017-Sep-21 09:59N 01°20' E 103°33'0 0.0
2017-Sep-21 09:26N 01°20' E 103°33'0 0.0
2017-Sep-21 08:59N 01°20' E 103°33'0 0.0
2017-Sep-21 08:23N 01°20' E 103°33'0 0.0
2017-Sep-21 07:59N 01°20' E 103°33'0 0.0
2017-Sep-21 07:23N 01°20' E 103°33'0 0.0
2017-Sep-21 06:47N 01°20' E 103°33'0 0.0
2017-Sep-21 06:26N 01°20' E 103°33'0 0.0
2017-Sep-21 05:56N 01°20' E 103°33'0 0.0
2017-Sep-21 04:41N 01°20' E 103°33'0 0.0
2017-Sep-21 04:14N 01°20' E 103°33'0 0.0
2017-Sep-21 03:59N 01°20' E 103°33'0 0.0
2017-Sep-21 03:26N 01°20' E 103°33'0 0.0
2017-Sep-21 02:50N 01°20' E 103°33'0 0.0
2017-Sep-21 02:26N 01°20' E 103°33'0 0.0
2017-Sep-21 01:44N 01°20' E 103°33'0 0.0
2017-Sep-21 00:17N 01°20' E 103°33'0 0.0
2017-Sep-20 23:56N 01°20' E 103°33'0 0.0
2017-Sep-20 22:56N 01°20' E 103°33'0 0.0
2017-Sep-20 21:53N 01°20' E 103°33'0 0.0
2017-Sep-20 21:29N 01°20' E 103°33'0 0.0
2017-Sep-20 20:50N 01°20' E 103°33'0 0.2
2017-Sep-20 20:30N 01°20' E 103°33'1 2.2
2017-Sep-20 20:00N 01°19' E 103°33'3 5.7
2017-Sep-20 19:30N 01°16' E 103°33'1 2.9
2017-Sep-20 19:01N 01°15' E 103°34'1 1.4
2017-Sep-20 18:02N 01°16' E 103°35'0 0.1
2017-Sep-20 17:50N 01°16' E 103°35'0 0.2
2017-Sep-20 17:26N 01°16' E 103°35'0 0.0
2017-Sep-20 16:59N 01°16' E 103°35'0 0.1
2017-Sep-20 16:23N 01°16' E 103°35'1 1.6
2017-Sep-20 16:01N 01°15' E 103°35'2 3.2
2017-Sep-20 15:29N 01°14' E 103°33'2 4.4
2017-Sep-20 15:01N 01°16' E 103°34'0 0.2
2017-Sep-20 13:58N 01°16' E 103°34'0 0.1
2017-Sep-20 13:28N 01°16' E 103°34'0 0.1
2017-Sep-20 12:58N 01°16' E 103°34'0 0.0
2017-Sep-20 12:25N 01°16' E 103°34'0 0.1
2017-Sep-20 11:58N 01°16' E 103°34'0 0.0
2017-Sep-20 11:28N 01°16' E 103°34'0 0.0
2017-Sep-20 10:58N 01°16' E 103°34'0 0.1
2017-Sep-20 10:25N 01°16' E 103°34'0 0.1
2017-Sep-20 09:52N 01°16' E 103°34'0 0.0
2017-Sep-20 09:28N 01°16' E 103°34'0 0.0
2017-Sep-20 08:58N 01°16' E 103°34'0 0.0
2017-Sep-20 08:28N 01°16' E 103°34'0 0.1
2017-Sep-20 07:58N 01°16' E 103°34'0 0.1
2017-Sep-20 07:19N 01°16' E 103°34'0 0.0
2017-Sep-20 06:49N 01°16' E 103°34'0 0.2
2017-Sep-20 06:28N 01°16' E 103°34'0 0.0
2017-Sep-20 05:55N 01°16' E 103°34'0 0.0
2017-Sep-20 05:22N 01°16' E 103°34'0 0.0
2017-Sep-20 04:58N 01°16' E 103°34'0 0.1
2017-Sep-20 04:28N 01°16' E 103°35'0 0.0
2017-Sep-20 03:58N 01°16' E 103°35'0 0.0
2017-Sep-20 03:19N 01°16' E 103°35'0 0.0
2017-Sep-20 02:46N 01°16' E 103°35'0 0.0
2017-Sep-20 02:22N 01°16' E 103°35'0 0.0
2017-Sep-20 02:01N 01°16' E 103°35'0 0.1
2017-Sep-20 01:25N 01°16' E 103°34'0 0.1
2017-Sep-20 01:01N 01°16' E 103°34'0 0.1
2017-Sep-20 00:31N 01°16' E 103°34'0 0.1
2017-Sep-19 23:55N 01°16' E 103°34'0 0.2
2017-Sep-19 23:25N 01°16' E 103°34'0 0.1
2017-Sep-19 22:58N 01°16' E 103°34'0 0.0
2017-Sep-19 22:31N 01°16' E 103°34'0 0.0
2017-Sep-19 21:57N 01°16' E 103°34'0 0.1
2017-Sep-19 21:27N 01°16' E 103°34'0 0.0
2017-Sep-19 21:00N 01°16' E 103°34'0 0.0
2017-Sep-19 20:31N 01°16' E 103°34'0 0.0
2017-Sep-19 19:58N 01°16' E 103°34'0 0.0
2017-Sep-19 19:27N 01°16' E 103°34'0 0.1
2017-Sep-19 18:58N 01°16' E 103°34'0 0.1
2017-Sep-19 18:30N 01°16' E 103°34'0 0.1
2017-Sep-19 18:00N 01°16' E 103°34'0 0.0
2017-Sep-19 17:30N 01°16' E 103°34'0 0.0
2017-Sep-19 16:46N 01°16' E 103°34'0 0.0
2017-Sep-19 16:22N 01°16' E 103°34'0 0.1
2017-Sep-19 15:48N 01°16' E 103°34'0 0.1
2017-Sep-19 15:28N 01°16' E 103°34'0 0.0
2017-Sep-19 15:00N 01°16' E 103°34'0 0.0
2017-Sep-19 14:27N 01°16' E 103°34'0 0.0
2017-Sep-19 14:01N 01°16' E 103°34'0 0.0
2017-Sep-19 13:30N 01°16' E 103°34'0 0.0
2017-Sep-19 12:54N 01°16' E 103°34'0 0.0
2017-Sep-19 12:27N 01°16' E 103°34'0 0.1
2017-Sep-19 12:00N 01°16' E 103°34'0 0.1
2017-Sep-19 11:30N 01°16' E 103°34'0 0.1
2017-Sep-19 10:54N 01°16' E 103°34'0 0.1
2017-Sep-19 10:22N 01°16' E 103°34'0 0.0
2017-Sep-19 09:42N 01°16' E 103°34'0 0.0
2017-Sep-19 09:25N 01°16' E 103°34'0 0.2
2017-Sep-19 09:01N 01°16' E 103°34'0 0.1
2017-Sep-19 08:30N 01°16' E 103°34'0 0.0
2017-Sep-19 08:00N 01°16' E 103°34'0 0.1
2017-Sep-19 07:31N 01°16' E 103°34'0 0.0
2017-Sep-19 06:58N 01°16' E 103°34'0 0.1
2017-Sep-19 06:31N 01°16' E 103°34'0 0.2
2017-Sep-19 05:22N 01°16' E 103°34'0 0.0
2017-Sep-19 04:57N 01°16' E 103°34'0 0.0
2017-Sep-19 04:12N 01°16' E 103°34'0 0.1
2017-Sep-19 03:57N 01°16' E 103°34'0 0.0
2017-Sep-19 03:24N 01°16' E 103°34'0 0.0
2017-Sep-19 02:54N 01°16' E 103°34'0 0.0
2017-Sep-19 02:30N 01°16' E 103°34'0 0.0
2017-Sep-19 01:57N 01°16' E 103°34'0 0.1
2017-Sep-19 01:27N 01°16' E 103°34'0 0.0
2017-Sep-19 00:54N 01°16' E 103°34'0 0.1
2017-Sep-19 00:24N 01°16' E 103°34'0 0.2
2017-Sep-19 00:00N 01°16' E 103°34'0 0.2
2017-Sep-18 23:27N 01°16' E 103°34'0 0.2
2017-Sep-18 22:57N 01°16' E 103°34'0 0.1
2017-Sep-18 22:24N 01°16' E 103°34'0 0.0
2017-Sep-18 22:00N 01°16' E 103°34'0 0.0
2017-Sep-18 21:30N 01°16' E 103°34'0 0.0
2017-Sep-18 20:48N 01°16' E 103°34'0 0.0
2017-Sep-18 20:21N 01°16' E 103°34'0 0.0
2017-Sep-18 20:00N 01°16' E 103°34'0 0.0
2017-Sep-18 19:30N 01°16' E 103°34'0 0.0
2017-Sep-18 18:57N 01°16' E 103°34'0 0.1
2017-Sep-18 18:30N 01°16' E 103°34'0 0.1
2017-Sep-18 18:00N 01°16' E 103°34'0 0.0
2017-Sep-18 17:30N 01°16' E 103°34'0 0.1
2017-Sep-18 16:57N 01°16' E 103°34'0 0.0
2017-Sep-18 16:27N 01°16' E 103°34'0 0.0
2017-Sep-18 15:48N 01°16' E 103°34'0 0.1
2017-Sep-18 14:45N 01°16' E 103°35'0 0.0
2017-Sep-18 14:24N 01°16' E 103°35'0 0.1
2017-Sep-18 14:00N 01°16' E 103°35'0 0.1
2017-Sep-18 13:30N 01°16' E 103°34'0 0.0
2017-Sep-18 12:57N 01°16' E 103°34'0 0.0
2017-Sep-18 12:27N 01°16' E 103°34'0 0.0
2017-Sep-18 12:01N 01°16' E 103°34'0 0.0
2017-Sep-18 11:27N 01°16' E 103°34'0 0.1
2017-Sep-18 10:57N 01°16' E 103°34'0 0.1
2017-Sep-18 10:27N 01°16' E 103°34'0 0.1
2017-Sep-18 09:57N 01°16' E 103°34'0 0.0
2017-Sep-18 09:30N 01°16' E 103°34'0 0.0
2017-Sep-18 07:36N 01°16' E 103°34'0 0.0
2017-Sep-18 07:18N 01°16' E 103°34'0 0.0
2017-Sep-18 06:51N 01°16' E 103°34'0 0.1
2017-Sep-18 06:30N 01°16' E 103°34'0 0.1
2017-Sep-18 05:57N 01°16' E 103°34'0 0.1
2017-Sep-18 05:30N 01°16' E 103°34'0 0.1
2017-Sep-18 04:54N 01°16' E 103°34'0 0.1
2017-Sep-18 03:15N 01°16' E 103°34'0 0.2
2017-Sep-18 02:57N 01°16' E 103°35'0 0.1
2017-Sep-18 02:30N 01°16' E 103°34'0 0.0
2017-Sep-18 01:57N 01°16' E 103°34'0 0.1
2017-Sep-18 01:24N 01°16' E 103°34'0 0.1
2017-Sep-18 00:54N 01°16' E 103°34'0 0.1
2017-Sep-18 00:30N 01°16' E 103°34'0 0.0
2017-Sep-17 23:48N 01°16' E 103°34'0 0.2
2017-Sep-17 23:30N 01°16' E 103°34'0 0.2
2017-Sep-17 22:54N 01°16' E 103°34'0 0.1
2017-Sep-17 22:21N 01°16' E 103°34'0 0.1
2017-Sep-17 21:57N 01°16' E 103°34'0 0.1
2017-Sep-17 21:24N 01°16' E 103°34'0 0.0
2017-Sep-17 21:00N 01°16' E 103°34'0 0.0
2017-Sep-17 20:30N 01°16' E 103°34'0 0.0
2017-Sep-17 19:57N 01°16' E 103°34'0 0.0
2017-Sep-17 19:30N 01°16' E 103°34'0 0.1
2017-Sep-17 18:57N 01°16' E 103°34'0 0.0
2017-Sep-17 18:24N 01°16' E 103°34'0 0.0
2017-Sep-17 18:00N 01°16' E 103°34'0 0.0
2017-Sep-17 17:30N 01°16' E 103°34'0 0.0
2017-Sep-17 16:54N 01°16' E 103°34'0 0.2
2017-Sep-17 16:30N 01°16' E 103°34'0 0.1
2017-Sep-17 15:57N 01°16' E 103°34'0 0.1
2017-Sep-17 15:30N 01°16' E 103°34'0 0.1
2017-Sep-17 14:48N 01°16' E 103°35'0 0.2
2017-Sep-17 14:30N 01°16' E 103°34'0 0.1
2017-Sep-17 14:00N 01°16' E 103°35'0 0.1
2017-Sep-17 13:30N 01°16' E 103°34'0 0.1
2017-Sep-17 13:00N 01°16' E 103°34'0 0.0
2017-Sep-17 12:27N 01°16' E 103°34'0 0.1
2017-Sep-17 11:54N 01°16' E 103°34'0 0.0
2017-Sep-17 11:27N 01°16' E 103°34'0 0.0
2017-Sep-17 10:57N 01°16' E 103°34'0 0.1
2017-Sep-17 10:27N 01°16' E 103°34'0 0.1
2017-Sep-17 09:57N 01°16' E 103°34'0 0.0
2017-Sep-17 09:30N 01°16' E 103°34'0 0.1
2017-Sep-17 08:54N 01°16' E 103°34'0 0.0
2017-Sep-17 08:21N 01°16' E 103°34'0 0.0
2017-Sep-17 07:54N 01°16' E 103°34'0 0.0
2017-Sep-17 07:21N 01°16' E 103°34'0 0.0
2017-Sep-17 07:00N 01°16' E 103°34'0 0.0
2017-Sep-17 06:30N 01°16' E 103°34'0 0.0
2017-Sep-17 05:54N 01°16' E 103°34'0 0.0
2017-Sep-17 05:27N 01°16' E 103°34'0 0.0
2017-Sep-17 04:57N 01°16' E 103°34'0 0.0
2017-Sep-17 04:30N 01°16' E 103°34'0 0.1
2017-Sep-17 03:57N 01°16' E 103°34'0 0.1
2017-Sep-17 03:21N 01°16' E 103°34'0 0.2
2017-Sep-17 03:00N 01°16' E 103°34'0 0.0
2017-Sep-17 02:30N 01°16' E 103°34'0 0.1
2017-Sep-17 02:00N 01°16' E 103°34'0 0.0
2017-Sep-17 01:27N 01°16' E 103°34'0 0.0
2017-Sep-17 01:00N 01°16' E 103°34'0 0.0
2017-Sep-17 00:30N 01°16' E 103°34'0 0.0
2017-Sep-16 23:57N 01°16' E 103°34'0 0.0
2017-Sep-16 23:30N 01°16' E 103°34'0 0.0
2017-Sep-16 23:00N 01°16' E 103°34'0 0.1
2017-Sep-16 22:24N 01°16' E 103°34'0 0.1
2017-Sep-16 21:57N 01°16' E 103°34'0 0.2
2017-Sep-16 21:30N 01°16' E 103°34'0 0.1
2017-Sep-16 21:00N 01°16' E 103°34'0 0.1
2017-Sep-16 20:30N 01°16' E 103°34'0 0.1
2017-Sep-16 20:00N 01°16' E 103°34'0 0.0
2017-Sep-16 19:21N 01°16' E 103°34'0 0.0
2017-Sep-16 18:57N 01°16' E 103°34'0 0.0
2017-Sep-16 18:30N 01°16' E 103°34'0 0.0
2017-Sep-16 18:00N 01°16' E 103°34'0 0.0
2017-Sep-16 17:30N 01°16' E 103°34'0 0.1
2017-Sep-16 16:51N 01°16' E 103°34'0 0.0
2017-Sep-16 16:21N 01°16' E 103°34'0 0.2
2017-Sep-16 16:01N 01°16' E 103°34'0 0.1
2017-Sep-16 15:27N 01°16' E 103°34'0 0.0
2017-Sep-16 14:57N 01°16' E 103°34'0 0.0
2017-Sep-16 14:30N 01°16' E 103°34'0 0.0
2017-Sep-16 13:42N 01°16' E 103°34'0 0.0
2017-Sep-16 13:21N 01°16' E 103°34'0 0.0
2017-Sep-16 12:57N 01°16' E 103°34'0 0.0
2017-Sep-16 12:06N 01°16' E 103°34'0 0.0
2017-Sep-16 11:48N 01°16' E 103°34'0 0.0
2017-Sep-16 11:30N 01°16' E 103°34'0 0.0
2017-Sep-16 10:54N 01°16' E 103°34'0 0.0
2017-Sep-16 10:27N 01°16' E 103°34'0 0.1
2017-Sep-16 10:01N 01°16' E 103°34'0 0.1
2017-Sep-16 09:30N 01°16' E 103°34'0 0.0
2017-Sep-16 08:57N 01°16' E 103°34'0 0.1
2017-Sep-16 08:30N 01°16' E 103°34'0 0.1
2017-Sep-16 07:51N 01°16' E 103°34'0 0.1
2017-Sep-16 07:30N 01°16' E 103°34'0 0.1
2017-Sep-16 06:45N 01°16' E 103°34'0 0.0
2017-Sep-16 06:30N 01°16' E 103°34'0 0.0
2017-Sep-16 05:57N 01°16' E 103°34'0 0.0
2017-Sep-16 05:30N 01°16' E 103°34'0 0.0
2017-Sep-16 05:00N 01°16' E 103°34'0 0.0
2017-Sep-16 04:30N 01°16' E 103°34'0 0.0
2017-Sep-16 03:54N 01°16' E 103°34'0 0.0
2017-Sep-16 03:30N 01°16' E 103°34'0 0.1
2017-Sep-16 02:57N 01°16' E 103°34'0 0.0
2017-Sep-16 02:27N 01°16' E 103°34'0 0.1
2017-Sep-16 01:57N 01°16' E 103°34'0 0.1
2017-Sep-16 01:27N 01°16' E 103°34'0 0.1
2017-Sep-16 01:00N 01°16' E 103°34'0 0.1
2017-Sep-16 00:09N 01°16' E 103°35'0 0.0
2017-Sep-15 23:57N 01°16' E 103°35'0 0.0
2017-Sep-15 23:27N 01°16' E 103°35'0 0.0
2017-Sep-15 22:57N 01°16' E 103°35'0 0.0
2017-Sep-15 22:30N 01°16' E 103°35'0 0.0
2017-Sep-15 22:00N 01°16' E 103°35'0 0.1
2017-Sep-15 21:18N 01°16' E 103°34'0 0.1
2017-Sep-15 21:00N 01°16' E 103°34'0 0.1
2017-Sep-15 20:30N 01°16' E 103°34'0 0.1
2017-Sep-15 20:00N 01°16' E 103°34'0 0.0
2017-Sep-15 19:30N 01°16' E 103°34'0 0.0
2017-Sep-15 19:00N 01°16' E 103°34'0 0.0
2017-Sep-15 18:30N 01°16' E 103°34'0 0.1
2017-Sep-15 17:57N 01°16' E 103°34'0 0.0
2017-Sep-15 17:21N 01°16' E 103°34'0 0.2
2017-Sep-15 16:57N 01°16' E 103°34'0 0.0
2017-Sep-15 16:30N 01°16' E 103°34'0 0.0
2017-Sep-15 15:54N 01°16' E 103°34'0 0.2
2017-Sep-15 15:30N 01°16' E 103°34'0 0.0
2017-Sep-15 15:00N 01°16' E 103°34'0 0.1
2017-Sep-15 14:30N 01°16' E 103°34'0 0.1
2017-Sep-15 14:00N 01°16' E 103°34'0 0.0
2017-Sep-15 13:30N 01°16' E 103°34'0 0.0
2017-Sep-15 13:00N 01°16' E 103°34'0 0.1
2017-Sep-15 12:09N 01°16' E 103°34'0 0.1
2017-Sep-15 11:48N 01°16' E 103°34'0 0.0
2017-Sep-15 11:30N 01°16' E 103°34'0 0.1
2017-Sep-15 11:00N 01°16' E 103°35'0 0.0
2017-Sep-15 10:30N 01°16' E 103°35'0 0.1
2017-Sep-15 10:00N 01°16' E 103°34'0 0.0
2017-Sep-15 09:24N 01°16' E 103°34'0 0.0
2017-Sep-15 08:54N 01°16' E 103°34'0 0.1
2017-Sep-15 08:30N 01°16' E 103°34'0 0.1
2017-Sep-15 07:57N 01°16' E 103°34'0 0.0
2017-Sep-15 07:30N 01°16' E 103°34'0 0.1
2017-Sep-15 07:00N 01°16' E 103°34'0 0.0
2017-Sep-15 06:30N 01°16' E 103°34'0 0.1
2017-Sep-15 05:51N 01°16' E 103°34'0 0.0
2017-Sep-15 05:27N 01°16' E 103°34'0 0.0
2017-Sep-15 04:57N 01°16' E 103°34'0 0.0
2017-Sep-15 04:27N 01°16' E 103°34'0 0.0
2017-Sep-15 03:57N 01°16' E 103°34'0 0.1
2017-Sep-15 03:24N 01°16' E 103°34'0 0.0
2017-Sep-15 03:00N 01°16' E 103°34'0 0.0
2017-Sep-15 02:24N 01°16' E 103°34'0 0.0
2017-Sep-15 01:57N 01°16' E 103°34'0 0.1
2017-Sep-15 01:30N 01°16' E 103°34'0 0.1
2017-Sep-15 00:55N 01°16' E 103°34'0 0.1
2017-Sep-14 20:46N 01°16' E 103°35'0 0.1
2017-Sep-14 19:04N 01°16' E 103°34'0 0.1
2017-Sep-14 18:58N 01°16' E 103°34'0 0.1
2017-Sep-14 18:16N 01°16' E 103°34'0 0.0
2017-Sep-14 17:52N 01°16' E 103°34'0 0.1
2017-Sep-14 17:16N 01°16' E 103°34'0 0.0
2017-Sep-14 16:52N 01°16' E 103°34'0 0.1
2017-Sep-14 15:19N 01°16' E 103°34'0 0.2
2017-Sep-14 14:58N 01°16' E 103°34'0 0.1
2017-Sep-14 14:28N 01°16' E 103°34'0 0.0
2017-Sep-14 13:58N 01°16' E 103°34'0 0.0
2017-Sep-14 12:04N 01°16' E 103°34'0 0.0
2017-Sep-14 11:58N 01°16' E 103°34'0 0.0
2017-Sep-14 08:52N 01°16' E 103°35'0 0.0
2017-Sep-14 08:25N 01°16' E 103°35'0 0.0
2017-Sep-14 07:58N 01°16' E 103°35'  
Track history (hours):
 
Tides and Currents Weather Stations Pressure Air Temp Water Temp Dewpoint Dewpoint Depression Visibility Wind Speed Wind Dir Waves Ship Positions

Hua Xing Hai

Last reported at 2017-Sep-24 07:05 UTC. Time now 2017-Sep-26 18:30 UTC.
Position N 01°17' E 103°22'.

Length 229 m; draft 7.5 m.

Type: Cargo ship. MMSI: 477021900.

Date/timePositionNaut miles runAvg speedWind from/ knotsBaromVisibWave heightAir tempDewpointWater temp
2017-Sep-24 07:05N 01°17' E 103°22'113.6
2017-Sep-24 06:59N 01°17' E 103°23'712.5
2017-Sep-24 06:26N 01°14' E 103°30'3 8.1
2017-Sep-24 06:00N 01°15' E 103°33'5 9.7
2017-Sep-24 05:31N 01°20' E 103°33'0 0.2
2017-Sep-24 04:50N 01°20' E 103°33'0 0.0
2017-Sep-24 04:23N 01°20' E 103°33'0 0.0
2017-Sep-24 03:53N 01°20' E 103°33'0 0.0
2017-Sep-24 03:17N 01°20' E 103°33'0 0.0
2017-Sep-24 02:56N 01°20' E 103°33'0 0.0
2017-Sep-24 02:26N 01°20' E 103°33'0 0.0
2017-Sep-24 00:32N 01°20' E 103°33'0 0.0
2017-Sep-24 00:29N 01°20' E 103°33'0 0.0
2017-Sep-23 23:56N 01°20' E 103°33'0 0.0
2017-Sep-23 23:23N 01°20' E 103°33'0 0.0
2017-Sep-23 22:56N 01°20' E 103°33'0 0.0
2017-Sep-23 22:29N 01°20' E 103°33'0 0.0
2017-Sep-23 21:56N 01°20' E 103°33'0 0.0
2017-Sep-23 21:29N 01°20' E 103°33'0 0.0
2017-Sep-23 20:56N 01°20' E 103°33'0 0.0
2017-Sep-23 20:29N 01°20' E 103°33'0 0.0
2017-Sep-23 19:56N 01°20' E 103°33'0 0.0
2017-Sep-22 01:53N 01°20' E 103°33'0 0.0
2017-Sep-22 01:23N 01°20' E 103°33'0 0.0
2017-Sep-22 00:47N 01°20' E 103°33'0 0.0
2017-Sep-22 00:23N 01°20' E 103°33'0 0.0
2017-Sep-21 23:59N 01°20' E 103°33'0 0.0
2017-Sep-21 23:29N 01°20' E 103°33'0 0.0
2017-Sep-21 22:59N 01°20' E 103°33'0 0.0
2017-Sep-21 22:29N 01°20' E 103°33'0 0.0
2017-Sep-21 21:56N 01°20' E 103°33'0 0.0
2017-Sep-21 21:14N 01°20' E 103°33'0 0.0
2017-Sep-21 20:50N 01°20' E 103°33'0 0.0
2017-Sep-21 20:26N 01°20' E 103°33'0 0.0
2017-Sep-21 19:47N 01°20' E 103°33'0 0.0
2017-Sep-21 19:26N 01°20' E 103°33'0 0.0
2017-Sep-21 18:59N 01°20' E 103°33'0 0.0
2017-Sep-21 18:29N 01°20' E 103°33'0 0.0
2017-Sep-21 17:59N 01°20' E 103°33'0 0.0
2017-Sep-21 17:17N 01°20' E 103°33'0 0.0
2017-Sep-21 16:59N 01°20' E 103°33'0 0.0
2017-Sep-21 16:20N 01°20' E 103°33'0 0.0
2017-Sep-21 15:56N 01°20' E 103°33'0 0.0
2017-Sep-21 15:14N 01°20' E 103°33'0 0.0
2017-Sep-21 13:29N 01°20' E 103°33'0 0.0
2017-Sep-21 12:59N 01°20' E 103°33'0 0.0
2017-Sep-21 12:29N 01°20' E 103°33'0 0.0
2017-Sep-21 11:59N 01°20' E 103°33'0 0.0
2017-Sep-21 11:29N 01°20' E 103°33'0 0.0
2017-Sep-21 10:50N 01°20' E 103°33'0 0.0
2017-Sep-21 10:29N 01°20' E 103°33'0 0.0
2017-Sep-21 09:59N 01°20' E 103°33'0 0.0
2017-Sep-21 09:26N 01°20' E 103°33'0 0.0
2017-Sep-21 08:59N 01°20' E 103°33'0 0.0
2017-Sep-21 08:23N 01°20' E 103°33'0 0.0
2017-Sep-21 07:59N 01°20' E 103°33'0 0.0
2017-Sep-21 07:23N 01°20' E 103°33'0 0.0
2017-Sep-21 06:47N 01°20' E 103°33'0 0.0
2017-Sep-21 06:26N 01°20' E 103°33'0 0.0
2017-Sep-21 05:56N 01°20' E 103°33'0 0.0
2017-Sep-21 04:41N 01°20' E 103°33'0 0.0
2017-Sep-21 04:14N 01°20' E 103°33'0 0.0
2017-Sep-21 03:59N 01°20' E 103°33'0 0.0
2017-Sep-21 03:26N 01°20' E 103°33'0 0.0
2017-Sep-21 02:50N 01°20' E 103°33'0 0.0
2017-Sep-21 02:26N 01°20' E 103°33'0 0.0
2017-Sep-21 01:44N 01°20' E 103°33'0 0.0
2017-Sep-21 00:17N 01°20' E 103°33'0 0.0
2017-Sep-20 23:56N 01°20' E 103°33'0 0.0
2017-Sep-20 22:56N 01°20' E 103°33'0 0.0
2017-Sep-20 21:53N 01°20' E 103°33'0 0.0
2017-Sep-20 21:29N 01°20' E 103°33'0 0.0
2017-Sep-20 20:50N 01°20' E 103°33'0 0.2
2017-Sep-20 20:30N 01°20' E 103°33'1 2.2
2017-Sep-20 20:00N 01°19' E 103°33'3 5.7
2017-Sep-20 19:30N 01°16' E 103°33'1 2.9
2017-Sep-20 19:01N 01°15' E 103°34'1 1.4
2017-Sep-20 18:02N 01°16' E 103°35'0 0.1
2017-Sep-20 17:50N 01°16' E 103°35'0 0.2
2017-Sep-20 17:26N 01°16' E 103°35'0 0.0
2017-Sep-20 16:59N 01°16' E 103°35'0 0.1
2017-Sep-20 16:23N 01°16' E 103°35'1 1.6
2017-Sep-20 16:01N 01°15' E 103°35'2 3.2
2017-Sep-20 15:29N 01°14' E 103°33'2 4.4
2017-Sep-20 15:01N 01°16' E 103°34'0 0.2
2017-Sep-20 13:58N 01°16' E 103°34'0 0.1
2017-Sep-20 13:28N 01°16' E 103°34'0 0.1
2017-Sep-20 12:58N 01°16' E 103°34'0 0.0
2017-Sep-20 12:25N 01°16' E 103°34'0 0.1
2017-Sep-20 11:58N 01°16' E 103°34'0 0.0
2017-Sep-20 11:28N 01°16' E 103°34'0 0.0
2017-Sep-20 10:58N 01°16' E 103°34'0 0.1
2017-Sep-20 10:25N 01°16' E 103°34'0 0.1
2017-Sep-20 09:52N 01°16' E 103°34'0 0.0
2017-Sep-20 09:28N 01°16' E 103°34'0 0.0
2017-Sep-20 08:58N 01°16' E 103°34'0 0.0
2017-Sep-20 08:28N 01°16' E 103°34'0 0.1
2017-Sep-20 07:58N 01°16' E 103°34'0 0.1
2017-Sep-20 07:19N 01°16' E 103°34'0 0.0
2017-Sep-20 06:49N 01°16' E 103°34'0 0.2
2017-Sep-20 06:28N 01°16' E 103°34'0 0.0
2017-Sep-20 05:55N 01°16' E 103°34'0 0.0
2017-Sep-20 05:22N 01°16' E 103°34'0 0.0
2017-Sep-20 04:58N 01°16' E 103°34'0 0.1
2017-Sep-20 04:28N 01°16' E 103°35'0 0.0
2017-Sep-20 03:58N 01°16' E 103°35'0 0.0
2017-Sep-20 03:19N 01°16' E 103°35'0 0.0
2017-Sep-20 02:46N 01°16' E 103°35'0 0.0
2017-Sep-20 02:22N 01°16' E 103°35'0 0.0
2017-Sep-20 02:01N 01°16' E 103°35'0 0.1
2017-Sep-20 01:25N 01°16' E 103°34'0 0.1
2017-Sep-20 01:01N 01°16' E 103°34'0 0.1
2017-Sep-20 00:31N 01°16' E 103°34'0 0.1
2017-Sep-19 23:55N 01°16' E 103°34'0 0.2
2017-Sep-19 23:25N 01°16' E 103°34'0 0.1
2017-Sep-19 22:58N 01°16' E 103°34'0 0.0
2017-Sep-19 22:31N 01°16' E 103°34'0 0.0
2017-Sep-19 21:57N 01°16' E 103°34'0 0.1
2017-Sep-19 21:27N 01°16' E 103°34'0 0.0
2017-Sep-19 21:00N 01°16' E 103°34'0 0.0
2017-Sep-19 20:31N 01°16' E 103°34'0 0.0
2017-Sep-19 19:58N 01°16' E 103°34'0 0.0
2017-Sep-19 19:27N 01°16' E 103°34'0 0.1
2017-Sep-19 18:58N 01°16' E 103°34'0 0.1
2017-Sep-19 18:30N 01°16' E 103°34'0 0.1
2017-Sep-19 18:00N 01°16' E 103°34'0 0.0
2017-Sep-19 17:30N 01°16' E 103°34'0 0.0
2017-Sep-19 16:46N 01°16' E 103°34'0 0.0
2017-Sep-19 16:22N 01°16' E 103°34'0 0.1
2017-Sep-19 15:48N 01°16' E 103°34'0 0.1
2017-Sep-19 15:28N 01°16' E 103°34'0 0.0
2017-Sep-19 15:00N 01°16' E 103°34'0 0.0
2017-Sep-19 14:27N 01°16' E 103°34'0 0.0
2017-Sep-19 14:01N 01°16' E 103°34'0 0.0
2017-Sep-19 13:30N 01°16' E 103°34'0 0.0
2017-Sep-19 12:54N 01°16' E 103°34'0 0.0
2017-Sep-19 12:27N 01°16' E 103°34'0 0.1
2017-Sep-19 12:00N 01°16' E 103°34'0 0.1
2017-Sep-19 11:30N 01°16' E 103°34'0 0.1
2017-Sep-19 10:54N 01°16' E 103°34'0 0.1
2017-Sep-19 10:22N 01°16' E 103°34'0 0.0
2017-Sep-19 09:42N 01°16' E 103°34'0 0.0
2017-Sep-19 09:25N 01°16' E 103°34'0 0.2
2017-Sep-19 09:01N 01°16' E 103°34'0 0.1
2017-Sep-19 08:30N 01°16' E 103°34'0 0.0
2017-Sep-19 08:00N 01°16' E 103°34'0 0.1
2017-Sep-19 07:31N 01°16' E 103°34'0 0.0
2017-Sep-19 06:58N 01°16' E 103°34'0 0.1
2017-Sep-19 06:31N 01°16' E 103°34'0 0.2
2017-Sep-19 05:22N 01°16' E 103°34'0 0.0
2017-Sep-19 04:57N 01°16' E 103°34'0 0.0
2017-Sep-19 04:12N 01°16' E 103°34'0 0.1
2017-Sep-19 03:57N 01°16' E 103°34'0 0.0
2017-Sep-19 03:24N 01°16' E 103°34'0 0.0
2017-Sep-19 02:54N 01°16' E 103°34'0 0.0
2017-Sep-19 02:30N 01°16' E 103°34'0 0.0
2017-Sep-19 01:57N 01°16' E 103°34'0 0.1
2017-Sep-19 01:27N 01°16' E 103°34'0 0.0
2017-Sep-19 00:54N 01°16' E 103°34'0 0.1
2017-Sep-19 00:24N 01°16' E 103°34'0 0.2
2017-Sep-19 00:00N 01°16' E 103°34'0 0.2
2017-Sep-18 23:27N 01°16' E 103°34'0 0.2
2017-Sep-18 22:57N 01°16' E 103°34'0 0.1
2017-Sep-18 22:24N 01°16' E 103°34'0 0.0
2017-Sep-18 22:00N 01°16' E 103°34'0 0.0
2017-Sep-18 21:30N 01°16' E 103°34'0 0.0
2017-Sep-18 20:48N 01°16' E 103°34'0 0.0
2017-Sep-18 20:21N 01°16' E 103°34'0 0.0
2017-Sep-18 20:00N 01°16' E 103°34'0 0.0
2017-Sep-18 19:30N 01°16' E 103°34'0 0.0
2017-Sep-18 18:57N 01°16' E 103°34'0 0.1
2017-Sep-18 18:30N 01°16' E 103°34'0 0.1
2017-Sep-18 18:00N 01°16' E 103°34'0 0.0
2017-Sep-18 17:30N 01°16' E 103°34'0 0.1
2017-Sep-18 16:57N 01°16' E 103°34'0 0.0
2017-Sep-18 16:27N 01°16' E 103°34'0 0.0
2017-Sep-18 15:48N 01°16' E 103°34'0 0.1
2017-Sep-18 14:45N 01°16' E 103°35'0 0.0
2017-Sep-18 14:24N 01°16' E 103°35'0 0.1
2017-Sep-18 14:00N 01°16' E 103°35'0 0.1
2017-Sep-18 13:30N 01°16' E 103°34'0 0.0
2017-Sep-18 12:57N 01°16' E 103°34'0 0.0
2017-Sep-18 12:27N 01°16' E 103°34'0 0.0
2017-Sep-18 12:01N 01°16' E 103°34'0 0.0
2017-Sep-18 11:27N 01°16' E 103°34'0 0.1
2017-Sep-18 10:57N 01°16' E 103°34'0 0.1
2017-Sep-18 10:27N 01°16' E 103°34'0 0.1
2017-Sep-18 09:57N 01°16' E 103°34'0 0.0
2017-Sep-18 09:30N 01°16' E 103°34'0 0.0
2017-Sep-18 07:36N 01°16' E 103°34'0 0.0
2017-Sep-18 07:18N 01°16' E 103°34'0 0.0
2017-Sep-18 06:51N 01°16' E 103°34'0 0.1
2017-Sep-18 06:30N 01°16' E 103°34'0 0.1
2017-Sep-18 05:57N 01°16' E 103°34'0 0.1
2017-Sep-18 05:30N 01°16' E 103°34'0 0.1
2017-Sep-18 04:54N 01°16' E 103°34'0 0.1
2017-Sep-18 03:15N 01°16' E 103°34'0 0.2
2017-Sep-18 02:57N 01°16' E 103°35'0 0.1
2017-Sep-18 02:30N 01°16' E 103°34'0 0.0
2017-Sep-18 01:57N 01°16' E 103°34'0 0.1
2017-Sep-18 01:24N 01°16' E 103°34'0 0.1
2017-Sep-18 00:54N 01°16' E 103°34'0 0.1
2017-Sep-18 00:30N 01°16' E 103°34'0 0.0
2017-Sep-17 23:48N 01°16' E 103°34'0 0.2
2017-Sep-17 23:30N 01°16' E 103°34'0 0.2
2017-Sep-17 22:54N 01°16' E 103°34'0 0.1
2017-Sep-17 22:21N 01°16' E 103°34'0 0.1
2017-Sep-17 21:57N 01°16' E 103°34'0 0.1
2017-Sep-17 21:24N 01°16' E 103°34'0 0.0
2017-Sep-17 21:00N 01°16' E 103°34'0 0.0
2017-Sep-17 20:30N 01°16' E 103°34'0 0.0
2017-Sep-17 19:57N 01°16' E 103°34'0 0.0
2017-Sep-17 19:30N 01°16' E 103°34'0 0.1
2017-Sep-17 18:57N 01°16' E 103°34'0 0.0
2017-Sep-17 18:24N 01°16' E 103°34'0 0.0
2017-Sep-17 18:00N 01°16' E 103°34'0 0.0
2017-Sep-17 17:30N 01°16' E 103°34'0 0.0
2017-Sep-17 16:54N 01°16' E 103°34'0 0.2
2017-Sep-17 16:30N 01°16' E 103°34'0 0.1
2017-Sep-17 15:57N 01°16' E 103°34'0 0.1
2017-Sep-17 15:30N 01°16' E 103°34'0 0.1
2017-Sep-17 14:48N 01°16' E 103°35'0 0.2
2017-Sep-17 14:30N 01°16' E 103°34'0 0.1
2017-Sep-17 14:00N 01°16' E 103°35'0 0.1
2017-Sep-17 13:30N 01°16' E 103°34'0 0.1
2017-Sep-17 13:00N 01°16' E 103°34'0 0.0
2017-Sep-17 12:27N 01°16' E 103°34'0 0.1
2017-Sep-17 11:54N 01°16' E 103°34'0 0.0
2017-Sep-17 11:27N 01°16' E 103°34'0 0.0
2017-Sep-17 10:57N 01°16' E 103°34'0 0.1
2017-Sep-17 10:27N 01°16' E 103°34'0 0.1
2017-Sep-17 09:57N 01°16' E 103°34'0 0.0
2017-Sep-17 09:30N 01°16' E 103°34'0 0.1
2017-Sep-17 08:54N 01°16' E 103°34'0 0.0
2017-Sep-17 08:21N 01°16' E 103°34'0 0.0
2017-Sep-17 07:54N 01°16' E 103°34'0 0.0
2017-Sep-17 07:21N 01°16' E 103°34'0 0.0
2017-Sep-17 07:00N 01°16' E 103°34'0 0.0
2017-Sep-17 06:30N 01°16' E 103°34'0 0.0
2017-Sep-17 05:54N 01°16' E 103°34'0 0.0
2017-Sep-17 05:27N 01°16' E 103°34'0 0.0
2017-Sep-17 04:57N 01°16' E 103°34'0 0.0
2017-Sep-17 04:30N 01°16' E 103°34'0 0.1
2017-Sep-17 03:57N 01°16' E 103°34'0 0.1
2017-Sep-17 03:21N 01°16' E 103°34'0 0.2
2017-Sep-17 03:00N 01°16' E 103°34'0 0.0
2017-Sep-17 02:30N 01°16' E 103°34'0 0.1
2017-Sep-17 02:00N 01°16' E 103°34'0 0.0
2017-Sep-17 01:27N 01°16' E 103°34'0 0.0
2017-Sep-17 01:00N 01°16' E 103°34'0 0.0
2017-Sep-17 00:30N 01°16' E 103°34'0 0.0
2017-Sep-16 23:57N 01°16' E 103°34'0 0.0
2017-Sep-16 23:30N 01°16' E 103°34'0 0.0
2017-Sep-16 23:00N 01°16' E 103°34'0 0.1
2017-Sep-16 22:24N 01°16' E 103°34'0 0.1
2017-Sep-16 21:57N 01°16' E 103°34'0 0.2
2017-Sep-16 21:30N 01°16' E 103°34'0 0.1
2017-Sep-16 21:00N 01°16' E 103°34'0 0.1
2017-Sep-16 20:30N 01°16' E 103°34'0 0.1
2017-Sep-16 20:00N 01°16' E 103°34'0 0.0
2017-Sep-16 19:21N 01°16' E 103°34'0 0.0
2017-Sep-16 18:57N 01°16' E 103°34'0 0.0
2017-Sep-16 18:30N 01°16' E 103°34'0 0.0
2017-Sep-16 18:00N 01°16' E 103°34'0 0.0
2017-Sep-16 17:30N 01°16' E 103°34'0 0.1
2017-Sep-16 16:51N 01°16' E 103°34'0 0.0
2017-Sep-16 16:21N 01°16' E 103°34'0 0.2
2017-Sep-16 16:01N 01°16' E 103°34'0 0.1
2017-Sep-16 15:27N 01°16' E 103°34'0 0.0
2017-Sep-16 14:57N 01°16' E 103°34'0 0.0
2017-Sep-16 14:30N 01°16' E 103°34'0 0.0
2017-Sep-16 13:42N 01°16' E 103°34'0 0.0
2017-Sep-16 13:21N 01°16' E 103°34'0 0.0
2017-Sep-16 12:57N 01°16' E 103°34'0 0.0
2017-Sep-16 12:06N 01°16' E 103°34'0 0.0
2017-Sep-16 11:48N 01°16' E 103°34'0 0.0
2017-Sep-16 11:30N 01°16' E 103°34'0 0.0
2017-Sep-16 10:54N 01°16' E 103°34'0 0.0
2017-Sep-16 10:27N 01°16' E 103°34'0 0.1
2017-Sep-16 10:01N 01°16' E 103°34'0 0.1
2017-Sep-16 09:30N 01°16' E 103°34'0 0.0
2017-Sep-16 08:57N 01°16' E 103°34'0 0.1
2017-Sep-16 08:30N 01°16' E 103°34'0 0.1
2017-Sep-16 07:51N 01°16' E 103°34'0 0.1
2017-Sep-16 07:30N 01°16' E 103°34'0 0.1
2017-Sep-16 06:45N 01°16' E 103°34'0 0.0
2017-Sep-16 06:30N 01°16' E 103°34'0 0.0
2017-Sep-16 05:57N 01°16' E 103°34'0 0.0
2017-Sep-16 05:30N 01°16' E 103°34'0 0.0
2017-Sep-16 05:00N 01°16' E 103°34'0 0.0
2017-Sep-16 04:30N 01°16' E 103°34'0 0.0
2017-Sep-16 03:54N 01°16' E 103°34'0 0.0
2017-Sep-16 03:30N 01°16' E 103°34'0 0.1
2017-Sep-16 02:57N 01°16' E 103°34'0 0.0
2017-Sep-16 02:27N 01°16' E 103°34'0 0.1
2017-Sep-16 01:57N 01°16' E 103°34'0 0.1
2017-Sep-16 01:27N 01°16' E 103°34'0 0.1
2017-Sep-16 01:00N 01°16' E 103°34'0 0.1
2017-Sep-16 00:09N 01°16' E 103°35'0 0.0
2017-Sep-15 23:57N 01°16' E 103°35'0 0.0
2017-Sep-15 23:27N 01°16' E 103°35'0 0.0
2017-Sep-15 22:57N 01°16' E 103°35'0 0.0
2017-Sep-15 22:30N 01°16' E 103°35'0 0.0
2017-Sep-15 22:00N 01°16' E 103°35'0 0.1
2017-Sep-15 21:18N 01°16' E 103°34'0 0.1
2017-Sep-15 21:00N 01°16' E 103°34'0 0.1
2017-Sep-15 20:30N 01°16' E 103°34'0 0.1
2017-Sep-15 20:00N 01°16' E 103°34'0 0.0
2017-Sep-15 19:30N 01°16' E 103°34'0 0.0
2017-Sep-15 19:00N 01°16' E 103°34'0 0.0
2017-Sep-15 18:30N 01°16' E 103°34'0 0.1
2017-Sep-15 17:57N 01°16' E 103°34'0 0.0
2017-Sep-15 17:21N 01°16' E 103°34'0 0.2
2017-Sep-15 16:57N 01°16' E 103°34'0 0.0
2017-Sep-15 16:30N 01°16' E 103°34'0 0.0
2017-Sep-15 15:54N 01°16' E 103°34'0 0.2
2017-Sep-15 15:30N 01°16' E 103°34'0 0.0
2017-Sep-15 15:00N 01°16' E 103°34'0 0.1
2017-Sep-15 14:30N 01°16' E 103°34'0 0.1
2017-Sep-15 14:00N 01°16' E 103°34'0 0.0
2017-Sep-15 13:30N 01°16' E 103°34'0 0.0
2017-Sep-15 13:00N 01°16' E 103°34'0 0.1
2017-Sep-15 12:09N 01°16' E 103°34'0 0.1
2017-Sep-15 11:48N 01°16' E 103°34'0 0.0
2017-Sep-15 11:30N 01°16' E 103°34'0 0.1
2017-Sep-15 11:00N 01°16' E 103°35'0 0.0
2017-Sep-15 10:30N 01°16' E 103°35'0 0.1
2017-Sep-15 10:00N 01°16' E 103°34'0 0.0
2017-Sep-15 09:24N 01°16' E 103°34'0 0.0
2017-Sep-15 08:54N 01°16' E 103°34'0 0.1
2017-Sep-15 08:30N 01°16' E 103°34'0 0.1
2017-Sep-15 07:57N 01°16' E 103°34'0 0.0
2017-Sep-15 07:30N 01°16' E 103°34'0 0.1
2017-Sep-15 07:00N 01°16' E 103°34'0 0.0
2017-Sep-15 06:30N 01°16' E 103°34'0 0.1
2017-Sep-15 05:51N 01°16' E 103°34'0 0.0
2017-Sep-15 05:27N 01°16' E 103°34'0 0.0
2017-Sep-15 04:57N 01°16' E 103°34'0 0.0
2017-Sep-15 04:27N 01°16' E 103°34'0 0.0
2017-Sep-15 03:57N 01°16' E 103°34'0 0.1
2017-Sep-15 03:24N 01°16' E 103°34'0 0.0
2017-Sep-15 03:00N 01°16' E 103°34'0 0.0
2017-Sep-15 02:24N 01°16' E 103°34'0 0.0
2017-Sep-15 01:57N 01°16' E 103°34'0 0.1
2017-Sep-15 01:30N 01°16' E 103°34'0 0.1
2017-Sep-15 00:55N 01°16' E 103°34'0 0.1
2017-Sep-14 20:46N 01°16' E 103°35'0 0.1
2017-Sep-14 19:04N 01°16' E 103°34'0 0.1
2017-Sep-14 18:58N 01°16' E 103°34'0 0.1
2017-Sep-14 18:16N 01°16' E 103°34'0 0.0
2017-Sep-14 17:52N 01°16' E 103°34'0 0.1
2017-Sep-14 17:16N 01°16' E 103°34'0 0.0
2017-Sep-14 16:52N 01°16' E 103°34'0 0.1
2017-Sep-14 15:19N 01°16' E 103°34'0 0.2
2017-Sep-14 14:58N 01°16' E 103°34'0 0.1
2017-Sep-14 14:28N 01°16' E 103°34'0 0.0
2017-Sep-14 13:58N 01°16' E 103°34'0 0.0
2017-Sep-14 12:04N 01°16' E 103°34'0 0.0
2017-Sep-14 11:58N 01°16' E 103°34'0 0.0
2017-Sep-14 08:52N 01°16' E 103°35'0 0.0
2017-Sep-14 08:25N 01°16' E 103°35'0 0.0
2017-Sep-14 07:58N 01°16' E 103°35'  

Dump ship's entire track history